sensor_id;sensor_type;location;lat;lon;timestamp;P1;durP1;ratioP1;P2;durP2;ratioP2
3953;SDS011;1991;48.682;9.030;2023-02-13T00:00:43;19.93;;;10.60;;
3953;SDS011;1991;48.682;9.030;2023-02-13T00:03:10;15.60;;;10.47;;
3953;SDS011;1991;48.682;9.030;2023-02-13T00:05:36;18.63;;;11.03;;
3953;SDS011;1991;48.682;9.030;2023-02-13T00:08:01;13.07;;;10.30;;
3953;SDS011;1991;48.682;9.030;2023-02-13T00:10:27;18.27;;;10.43;;
3953;SDS011;1991;48.682;9.030;2023-02-13T00:12:52;16.53;;;10.67;;
3953;SDS011;1991;48.682;9.030;2023-02-13T00:15:18;19.50;;;11.47;;
3953;SDS011;1991;48.682;9.030;2023-02-13T00:17:44;17.07;;;11.03;;
3953;SDS011;1991;48.682;9.030;2023-02-13T00:20:09;19.70;;;11.00;;
3953;SDS011;1991;48.682;9.030;2023-02-13T00:22:36;15.37;;;10.40;;
3953;SDS011;1991;48.682;9.030;2023-02-13T00:25:06;19.13;;;10.30;;
3953;SDS011;1991;48.682;9.030;2023-02-13T00:27:32;22.47;;;11.63;;
3953;SDS011;1991;48.682;9.030;2023-02-13T00:29:57;14.77;;;10.57;;
3953;SDS011;1991;48.682;9.030;2023-02-13T00:32:23;16.77;;;10.50;;
3953;SDS011;1991;48.682;9.030;2023-02-13T00:34:49;18.43;;;11.23;;
3953;SDS011;1991;48.682;9.030;2023-02-13T00:37:15;25.60;;;13.33;;
3953;SDS011;1991;48.682;9.030;2023-02-13T00:39:40;25.17;;;14.00;;
3953;SDS011;1991;48.682;9.030;2023-02-13T00:42:06;23.77;;;13.33;;
3953;SDS011;1991;48.682;9.030;2023-02-13T00:44:32;24.63;;;13.97;;
3953;SDS011;1991;48.682;9.030;2023-02-13T00:46:57;27.40;;;14.93;;
3953;SDS011;1991;48.682;9.030;2023-02-13T00:49:23;27.77;;;14.80;;
3953;SDS011;1991;48.682;9.030;2023-02-13T00:51:49;27.00;;;15.43;;
3953;SDS011;1991;48.682;9.030;2023-02-13T00:54:14;29.70;;;16.20;;
3953;SDS011;1991;48.682;9.030;2023-02-13T00:56:40;32.80;;;16.73;;
3953;SDS011;1991;48.682;9.030;2023-02-13T00:59:05;30.87;;;16.90;;
3953;SDS011;1991;48.682;9.030;2023-02-13T01:01:31;32.57;;;16.70;;
3953;SDS011;1991;48.682;9.030;2023-02-13T01:03:56;37.50;;;17.67;;
3953;SDS011;1991;48.682;9.030;2023-02-13T01:06:22;30.93;;;16.33;;
3953;SDS011;1991;48.682;9.030;2023-02-13T01:08:48;27.03;;;16.40;;
3953;SDS011;1991;48.682;9.030;2023-02-13T01:11:13;30.57;;;17.03;;
3953;SDS011;1991;48.682;9.030;2023-02-13T01:13:40;29.40;;;16.53;;
3953;SDS011;1991;48.682;9.030;2023-02-13T01:16:06;24.27;;;14.27;;
3953;SDS011;1991;48.682;9.030;2023-02-13T01:18:31;27.53;;;14.50;;
3953;SDS011;1991;48.682;9.030;2023-02-13T01:21:07;24.23;;;14.57;;
3953;SDS011;1991;48.682;9.030;2023-02-13T01:23:34;23.13;;;14.50;;
3953;SDS011;1991;48.682;9.030;2023-02-13T01:26:04;25.40;;;13.80;;
3953;SDS011;1991;48.682;9.030;2023-02-13T01:28:32;21.00;;;13.50;;
3953;SDS011;1991;48.682;9.030;2023-02-13T01:30:58;24.57;;;14.30;;
3953;SDS011;1991;48.682;9.030;2023-02-13T01:33:24;26.07;;;13.57;;
3953;SDS011;1991;48.682;9.030;2023-02-13T01:35:51;24.10;;;13.87;;
3953;SDS011;1991;48.682;9.030;2023-02-13T01:38:17;22.90;;;12.80;;
3953;SDS011;1991;48.682;9.030;2023-02-13T01:40:44;19.27;;;11.53;;
3953;SDS011;1991;48.682;9.030;2023-02-13T01:43:11;25.07;;;14.00;;
3953;SDS011;1991;48.682;9.030;2023-02-13T01:45:37;20.77;;;13.50;;
3953;SDS011;1991;48.682;9.030;2023-02-13T01:48:04;23.87;;;14.30;;
3953;SDS011;1991;48.682;9.030;2023-02-13T01:50:38;21.97;;;13.77;;
3953;SDS011;1991;48.682;9.030;2023-02-13T01:53:13;26.07;;;13.83;;
3953;SDS011;1991;48.682;9.030;2023-02-13T01:55:52;22.70;;;13.50;;
3953;SDS011;1991;48.682;9.030;2023-02-13T01:58:23;24.00;;;13.13;;
3953;SDS011;1991;48.682;9.030;2023-02-13T02:00:51;24.83;;;13.17;;
3953;SDS011;1991;48.682;9.030;2023-02-13T02:03:25;21.93;;;13.80;;
3953;SDS011;1991;48.682;9.030;2023-02-13T02:06:01;20.20;;;12.57;;
3953;SDS011;1991;48.682;9.030;2023-02-13T02:08:28;22.90;;;12.83;;
3953;SDS011;1991;48.682;9.030;2023-02-13T02:10:56;25.40;;;14.20;;
3953;SDS011;1991;48.682;9.030;2023-02-13T02:13:25;24.30;;;14.03;;
3953;SDS011;1991;48.682;9.030;2023-02-13T02:15:51;21.20;;;12.60;;
3953;SDS011;1991;48.682;9.030;2023-02-13T02:20:58;21.10;;;13.77;;
3953;SDS011;1991;48.682;9.030;2023-02-13T02:26:23;24.40;;;13.83;;
3953;SDS011;1991;48.682;9.030;2023-02-13T02:40:02;20.80;;;12.30;;
3953;SDS011;1991;48.682;9.030;2023-02-13T02:53:28;21.80;;;12.03;;
3953;SDS011;1991;48.682;9.030;2023-02-13T02:56:05;22.03;;;12.00;;
3953;SDS011;1991;48.682;9.030;2023-02-13T03:01:37;22.37;;;12.53;;
3953;SDS011;1991;48.682;9.030;2023-02-13T03:04:29;18.93;;;11.50;;
3953;SDS011;1991;48.682;9.030;2023-02-13T03:07:29;18.87;;;11.70;;
3953;SDS011;1991;48.682;9.030;2023-02-13T03:09:57;21.13;;;12.63;;
3953;SDS011;1991;48.682;9.030;2023-02-13T03:12:46;23.97;;;13.20;;
3953;SDS011;1991;48.682;9.030;2023-02-13T03:15:39;22.60;;;12.70;;
3953;SDS011;1991;48.682;9.030;2023-02-13T03:18:26;23.77;;;13.97;;
3953;SDS011;1991;48.682;9.030;2023-02-13T03:24:24;27.67;;;14.27;;
3953;SDS011;1991;48.682;9.030;2023-02-13T03:28:02;21.30;;;12.87;;
3953;SDS011;1991;48.682;9.030;2023-02-13T03:30:31;26.53;;;13.67;;
3953;SDS011;1991;48.682;9.030;2023-02-13T03:33:27;23.40;;;13.17;;
3953;SDS011;1991;48.682;9.030;2023-02-13T03:36:19;23.43;;;14.37;;
3953;SDS011;1991;48.682;9.030;2023-02-13T03:42:13;22.57;;;13.20;;
3953;SDS011;1991;48.682;9.030;2023-02-13T03:44:49;23.10;;;13.60;;
3953;SDS011;1991;48.682;9.030;2023-02-13T03:47:43;25.70;;;14.77;;
3953;SDS011;1991;48.682;9.030;2023-02-13T03:50:10;26.00;;;15.17;;
3953;SDS011;1991;48.682;9.030;2023-02-13T03:55:14;27.87;;;14.87;;
3953;SDS011;1991;48.682;9.030;2023-02-13T03:58:09;27.10;;;14.50;;
3953;SDS011;1991;48.682;9.030;2023-02-13T04:00:58;24.67;;;14.63;;
3953;SDS011;1991;48.682;9.030;2023-02-13T04:03:38;23.37;;;14.83;;
3953;SDS011;1991;48.682;9.030;2023-02-13T04:06:20;23.80;;;14.43;;
3953;SDS011;1991;48.682;9.030;2023-02-13T04:08:51;25.17;;;14.47;;
3953;SDS011;1991;48.682;9.030;2023-02-13T04:11:17;28.00;;;15.57;;
3953;SDS011;1991;48.682;9.030;2023-02-13T04:16:43;25.57;;;15.30;;
3953;SDS011;1991;48.682;9.030;2023-02-13T04:19:09;23.07;;;14.73;;
3953;SDS011;1991;48.682;9.030;2023-02-13T04:21:37;23.23;;;14.93;;
3953;SDS011;1991;48.682;9.030;2023-02-13T04:24:04;25.97;;;15.37;;
3953;SDS011;1991;48.682;9.030;2023-02-13T04:26:38;26.30;;;15.83;;
3953;SDS011;1991;48.682;9.030;2023-02-13T04:29:06;24.70;;;14.60;;
3953;SDS011;1991;48.682;9.030;2023-02-13T04:31:32;26.10;;;15.17;;
3953;SDS011;1991;48.682;9.030;2023-02-13T04:33:58;23.30;;;14.87;;
3953;SDS011;1991;48.682;9.030;2023-02-13T04:36:23;28.87;;;16.63;;
3953;SDS011;1991;48.682;9.030;2023-02-13T04:38:49;28.30;;;16.33;;
3953;SDS011;1991;48.682;9.030;2023-02-13T04:41:15;25.43;;;15.27;;
3953;SDS011;1991;48.682;9.030;2023-02-13T04:43:41;27.70;;;16.13;;
3953;SDS011;1991;48.682;9.030;2023-02-13T04:46:06;28.83;;;15.47;;
3953;SDS011;1991;48.682;9.030;2023-02-13T04:48:32;27.97;;;15.90;;
3953;SDS011;1991;48.682;9.030;2023-02-13T04:50:58;27.03;;;14.80;;
3953;SDS011;1991;48.682;9.030;2023-02-13T04:53:23;24.90;;;14.50;;
3953;SDS011;1991;48.682;9.030;2023-02-13T04:55:49;24.57;;;14.73;;
3953;SDS011;1991;48.682;9.030;2023-02-13T04:58:16;24.53;;;14.73;;
3953;SDS011;1991;48.682;9.030;2023-02-13T05:00:41;25.63;;;15.77;;
3953;SDS011;1991;48.682;9.030;2023-02-13T05:03:09;27.30;;;16.13;;
3953;SDS011;1991;48.682;9.030;2023-02-13T05:05:36;26.53;;;15.07;;
3953;SDS011;1991;48.682;9.030;2023-02-13T05:08:02;28.67;;;15.80;;
3953;SDS011;1991;48.682;9.030;2023-02-13T05:10:29;24.50;;;15.30;;
3953;SDS011;1991;48.682;9.030;2023-02-13T05:12:54;25.87;;;15.47;;
3953;SDS011;1991;48.682;9.030;2023-02-13T05:15:20;26.33;;;15.30;;
3953;SDS011;1991;48.682;9.030;2023-02-13T05:17:47;30.20;;;16.10;;
3953;SDS011;1991;48.682;9.030;2023-02-13T05:20:13;29.80;;;16.77;;
3953;SDS011;1991;48.682;9.030;2023-02-13T05:22:44;29.13;;;17.07;;
3953;SDS011;1991;48.682;9.030;2023-02-13T05:25:35;27.17;;;17.13;;
3953;SDS011;1991;48.682;9.030;2023-02-13T05:28:02;30.63;;;17.80;;
3953;SDS011;1991;48.682;9.030;2023-02-13T05:30:27;28.40;;;16.83;;
3953;SDS011;1991;48.682;9.030;2023-02-13T05:32:53;29.07;;;17.30;;
3953;SDS011;1991;48.682;9.030;2023-02-13T05:35:22;28.83;;;17.23;;
3953;SDS011;1991;48.682;9.030;2023-02-13T05:37:49;28.80;;;16.80;;
3953;SDS011;1991;48.682;9.030;2023-02-13T05:40:14;32.17;;;17.63;;
3953;SDS011;1991;48.682;9.030;2023-02-13T05:42:40;37.50;;;19.97;;
3953;SDS011;1991;48.682;9.030;2023-02-13T05:45:07;35.00;;;19.80;;
3953;SDS011;1991;48.682;9.030;2023-02-13T05:47:33;30.50;;;19.00;;
3953;SDS011;1991;48.682;9.030;2023-02-13T05:49:59;31.53;;;18.30;;
3953;SDS011;1991;48.682;9.030;2023-02-13T05:52:25;30.90;;;17.90;;
3953;SDS011;1991;48.682;9.030;2023-02-13T05:54:50;31.30;;;17.50;;
3953;SDS011;1991;48.682;9.030;2023-02-13T05:57:16;28.20;;;17.30;;
3953;SDS011;1991;48.682;9.030;2023-02-13T05:59:42;31.33;;;17.00;;
3953;SDS011;1991;48.682;9.030;2023-02-13T06:02:07;30.37;;;17.70;;
3953;SDS011;1991;48.682;9.030;2023-02-13T06:04:33;29.93;;;17.43;;
3953;SDS011;1991;48.682;9.030;2023-02-13T06:06:59;33.47;;;17.40;;
3953;SDS011;1991;48.682;9.030;2023-02-13T06:09:24;28.13;;;16.87;;
3953;SDS011;1991;48.682;9.030;2023-02-13T06:11:50;30.30;;;18.43;;
3953;SDS011;1991;48.682;9.030;2023-02-13T06:14:15;30.80;;;16.60;;
3953;SDS011;1991;48.682;9.030;2023-02-13T06:16:41;31.20;;;17.20;;
3953;SDS011;1991;48.682;9.030;2023-02-13T06:19:07;31.77;;;17.30;;
3953;SDS011;1991;48.682;9.030;2023-02-13T06:21:32;28.80;;;16.17;;
3953;SDS011;1991;48.682;9.030;2023-02-13T06:24:03;28.70;;;15.90;;
3953;SDS011;1991;48.682;9.030;2023-02-13T06:26:29;28.30;;;16.80;;
3953;SDS011;1991;48.682;9.030;2023-02-13T06:28:55;29.40;;;17.37;;
3953;SDS011;1991;48.682;9.030;2023-02-13T06:31:20;27.83;;;17.73;;
3953;SDS011;1991;48.682;9.030;2023-02-13T06:33:46;28.20;;;16.27;;
3953;SDS011;1991;48.682;9.030;2023-02-13T06:36:12;28.27;;;16.57;;
3953;SDS011;1991;48.682;9.030;2023-02-13T06:38:37;29.43;;;16.43;;
3953;SDS011;1991;48.682;9.030;2023-02-13T06:41:03;29.90;;;16.23;;
3953;SDS011;1991;48.682;9.030;2023-02-13T06:43:29;31.30;;;17.43;;
3953;SDS011;1991;48.682;9.030;2023-02-13T06:45:55;27.30;;;16.47;;
3953;SDS011;1991;48.682;9.030;2023-02-13T06:48:21;29.60;;;16.77;;
3953;SDS011;1991;48.682;9.030;2023-02-13T06:50:47;33.17;;;18.20;;
3953;SDS011;1991;48.682;9.030;2023-02-13T06:53:12;30.67;;;18.20;;
3953;SDS011;1991;48.682;9.030;2023-02-13T06:55:38;30.17;;;17.83;;
3953;SDS011;1991;48.682;9.030;2023-02-13T06:58:04;30.97;;;17.37;;
3953;SDS011;1991;48.682;9.030;2023-02-13T07:00:30;30.40;;;17.97;;
3953;SDS011;1991;48.682;9.030;2023-02-13T07:03:00;28.23;;;17.33;;
3953;SDS011;1991;48.682;9.030;2023-02-13T07:05:27;31.07;;;17.57;;
3953;SDS011;1991;48.682;9.030;2023-02-13T07:07:53;31.73;;;17.63;;
3953;SDS011;1991;48.682;9.030;2023-02-13T07:10:19;29.00;;;18.43;;
3953;SDS011;1991;48.682;9.030;2023-02-13T07:12:44;30.40;;;17.63;;
3953;SDS011;1991;48.682;9.030;2023-02-13T07:15:10;30.10;;;18.37;;
3953;SDS011;1991;48.682;9.030;2023-02-13T07:17:36;26.37;;;16.53;;
3953;SDS011;1991;48.682;9.030;2023-02-13T07:20:02;26.77;;;16.37;;
3953;SDS011;1991;48.682;9.030;2023-02-13T07:22:29;29.50;;;16.07;;
3953;SDS011;1991;48.682;9.030;2023-02-13T07:24:56;26.33;;;16.63;;
3953;SDS011;1991;48.682;9.030;2023-02-13T07:27:23;26.93;;;15.77;;
3953;SDS011;1991;48.682;9.030;2023-02-13T07:29:49;27.67;;;16.40;;
3953;SDS011;1991;48.682;9.030;2023-02-13T07:32:14;26.67;;;16.03;;
3953;SDS011;1991;48.682;9.030;2023-02-13T07:34:40;26.40;;;15.53;;
3953;SDS011;1991;48.682;9.030;2023-02-13T07:37:05;24.03;;;14.47;;
3953;SDS011;1991;48.682;9.030;2023-02-13T07:39:31;24.50;;;13.93;;
3953;SDS011;1991;48.682;9.030;2023-02-13T07:41:56;23.27;;;13.67;;
3953;SDS011;1991;48.682;9.030;2023-02-13T07:44:22;21.60;;;13.80;;
3953;SDS011;1991;48.682;9.030;2023-02-13T07:46:48;22.47;;;14.10;;
3953;SDS011;1991;48.682;9.030;2023-02-13T07:49:13;18.57;;;13.23;;
3953;SDS011;1991;48.682;9.030;2023-02-13T07:51:39;21.87;;;12.40;;
3953;SDS011;1991;48.682;9.030;2023-02-13T07:54:04;21.57;;;13.97;;
3953;SDS011;1991;48.682;9.030;2023-02-13T07:56:30;20.03;;;13.93;;
3953;SDS011;1991;48.682;9.030;2023-02-13T07:58:55;16.93;;;12.40;;
3953;SDS011;1991;48.682;9.030;2023-02-13T08:01:21;19.97;;;12.70;;
3953;SDS011;1991;48.682;9.030;2023-02-13T08:03:47;19.77;;;13.93;;
3953;SDS011;1991;48.682;9.030;2023-02-13T08:06:17;16.00;;;12.17;;
3953;SDS011;1991;48.682;9.030;2023-02-13T08:08:44;19.17;;;12.87;;
3953;SDS011;1991;48.682;9.030;2023-02-13T08:11:27;20.80;;;13.20;;
3953;SDS011;1991;48.682;9.030;2023-02-13T08:14:15;16.43;;;12.37;;
3953;SDS011;1991;48.682;9.030;2023-02-13T08:16:40;17.33;;;12.47;;
3953;SDS011;1991;48.682;9.030;2023-02-13T08:19:06;18.93;;;13.03;;
3953;SDS011;1991;48.682;9.030;2023-02-13T08:21:31;18.27;;;11.93;;
3953;SDS011;1991;48.682;9.030;2023-02-13T08:23:59;19.47;;;12.70;;
3953;SDS011;1991;48.682;9.030;2023-02-13T08:26:24;17.73;;;12.00;;
3953;SDS011;1991;48.682;9.030;2023-02-13T08:28:50;17.50;;;11.87;;
3953;SDS011;1991;48.682;9.030;2023-02-13T08:31:16;16.33;;;11.87;;
3953;SDS011;1991;48.682;9.030;2023-02-13T08:33:41;16.70;;;12.00;;
3953;SDS011;1991;48.682;9.030;2023-02-13T08:36:07;15.13;;;11.37;;
3953;SDS011;1991;48.682;9.030;2023-02-13T08:38:33;14.53;;;11.30;;
3953;SDS011;1991;48.682;9.030;2023-02-13T08:40:59;15.20;;;10.60;;
3953;SDS011;1991;48.682;9.030;2023-02-13T08:43:24;14.37;;;10.67;;
3953;SDS011;1991;48.682;9.030;2023-02-13T08:45:50;13.57;;;10.03;;
3953;SDS011;1991;48.682;9.030;2023-02-13T08:48:16;14.93;;;11.40;;
3953;SDS011;1991;48.682;9.030;2023-02-13T08:50:41;14.27;;;10.63;;
3953;SDS011;1991;48.682;9.030;2023-02-13T08:53:07;15.27;;;11.87;;
3953;SDS011;1991;48.682;9.030;2023-02-13T08:55:32;14.47;;;11.67;;
3953;SDS011;1991;48.682;9.030;2023-02-13T08:57:59;13.57;;;10.47;;
3953;SDS011;1991;48.682;9.030;2023-02-13T09:00:25;14.83;;;11.17;;
3953;SDS011;1991;48.682;9.030;2023-02-13T09:02:51;13.70;;;10.47;;
3953;SDS011;1991;48.682;9.030;2023-02-13T09:05:17;17.40;;;11.07;;
3953;SDS011;1991;48.682;9.030;2023-02-13T09:07:43;16.23;;;11.57;;
3953;SDS011;1991;48.682;9.030;2023-02-13T09:10:08;15.20;;;11.50;;
3953;SDS011;1991;48.682;9.030;2023-02-13T09:12:34;13.17;;;9.90;;
3953;SDS011;1991;48.682;9.030;2023-02-13T09:15:00;11.63;;;9.53;;
3953;SDS011;1991;48.682;9.030;2023-02-13T09:17:25;13.17;;;9.90;;
3953;SDS011;1991;48.682;9.030;2023-02-13T09:19:51;12.63;;;9.40;;
3953;SDS011;1991;48.682;9.030;2023-02-13T09:22:16;11.87;;;9.10;;
3953;SDS011;1991;48.682;9.030;2023-02-13T09:24:42;12.07;;;9.20;;
3953;SDS011;1991;48.682;9.030;2023-02-13T09:27:08;10.63;;;9.33;;
3953;SDS011;1991;48.682;9.030;2023-02-13T09:29:33;9.33;;;7.50;;
3953;SDS011;1991;48.682;9.030;2023-02-13T09:31:59;8.97;;;8.07;;
3953;SDS011;1991;48.682;9.030;2023-02-13T09:34:24;15.43;;;9.23;;
3953;SDS011;1991;48.682;9.030;2023-02-13T09:36:53;14.63;;;9.17;;
3953;SDS011;1991;48.682;9.030;2023-02-13T09:39:19;9.80;;;8.63;;
3953;SDS011;1991;48.682;9.030;2023-02-13T09:41:46;9.55;;;8.55;;
3953;SDS011;1991;48.682;9.030;2023-02-13T09:44:15;9.32;;;8.32;;
3953;SDS011;1991;48.682;9.030;2023-02-13T09:47:06;8.88;;;7.97;;
3953;SDS011;1991;48.682;9.030;2023-02-13T09:49:39;8.73;;;7.85;;
3953;SDS011;1991;48.682;9.030;2023-02-13T09:52:09;9.00;;;8.00;;
3953;SDS011;1991;48.682;9.030;2023-02-13T09:54:35;8.32;;;7.50;;
3953;SDS011;1991;48.682;9.030;2023-02-13T09:57:35;8.90;;;7.60;;
3953;SDS011;1991;48.682;9.030;2023-02-13T10:00:12;8.35;;;7.55;;
3953;SDS011;1991;48.682;9.030;2023-02-13T10:03:10;8.25;;;7.45;;
3953;SDS011;1991;48.682;9.030;2023-02-13T10:11:38;7.75;;;6.70;;
3953;SDS011;1991;48.682;9.030;2023-02-13T10:14:34;7.65;;;7.05;;
3953;SDS011;1991;48.682;9.030;2023-02-13T10:23:09;8.27;;;7.63;;
3953;SDS011;1991;48.682;9.030;2023-02-13T10:26:02;8.02;;;7.32;;
3953;SDS011;1991;48.682;9.030;2023-02-13T10:28:32;8.07;;;7.38;;
3953;SDS011;1991;48.682;9.030;2023-02-13T10:31:04;8.18;;;7.47;;
3953;SDS011;1991;48.682;9.030;2023-02-13T10:33:38;8.73;;;7.93;;
3953;SDS011;1991;48.682;9.030;2023-02-13T10:36:18;8.73;;;8.02;;
3953;SDS011;1991;48.682;9.030;2023-02-13T10:38:50;8.65;;;7.95;;
3953;SDS011;1991;48.682;9.030;2023-02-13T10:41:26;7.55;;;6.85;;
3953;SDS011;1991;48.682;9.030;2023-02-13T10:44:32;7.97;;;7.38;;
3953;SDS011;1991;48.682;9.030;2023-02-13T10:52:22;8.45;;;7.75;;
3953;SDS011;1991;48.682;9.030;2023-02-13T10:55:01;7.60;;;7.00;;
3953;SDS011;1991;48.682;9.030;2023-02-13T11:00:10;8.35;;;7.75;;
3953;SDS011;1991;48.682;9.030;2023-02-13T11:02:42;8.00;;;7.40;;
3953;SDS011;1991;48.682;9.030;2023-02-13T11:05:21;8.80;;;8.10;;
3953;SDS011;1991;48.682;9.030;2023-02-13T11:07:50;7.90;;;7.30;;
3953;SDS011;1991;48.682;9.030;2023-02-13T11:10:16;8.35;;;7.75;;
3953;SDS011;1991;48.682;9.030;2023-02-13T11:12:44;8.10;;;7.50;;
3953;SDS011;1991;48.682;9.030;2023-02-13T11:15:20;7.28;;;6.70;;
3953;SDS011;1991;48.682;9.030;2023-02-13T11:17:57;7.75;;;7.15;;
3953;SDS011;1991;48.682;9.030;2023-02-13T11:20:27;7.72;;;7.15;;
3953;SDS011;1991;48.682;9.030;2023-02-13T11:22:56;8.10;;;7.47;;
3953;SDS011;1991;48.682;9.030;2023-02-13T11:25:38;7.90;;;7.30;;
3953;SDS011;1991;48.682;9.030;2023-02-13T11:28:09;8.60;;;7.90;;
3953;SDS011;1991;48.682;9.030;2023-02-13T11:30:41;7.85;;;7.25;;
3953;SDS011;1991;48.682;9.030;2023-02-13T11:35:41;8.15;;;7.45;;
3953;SDS011;1991;48.682;9.030;2023-02-13T11:40:38;8.38;;;7.78;;
3953;SDS011;1991;48.682;9.030;2023-02-13T11:43:06;8.05;;;7.40;;
3953;SDS011;1991;48.682;9.030;2023-02-13T11:45:38;6.70;;;6.20;;
3953;SDS011;1991;48.682;9.030;2023-02-13T11:48:07;6.25;;;5.85;;
3953;SDS011;1991;48.682;9.030;2023-02-13T11:50:40;7.13;;;6.63;;
3953;SDS011;1991;48.682;9.030;2023-02-13T11:53:16;6.35;;;5.85;;
3953;SDS011;1991;48.682;9.030;2023-02-13T11:55:59;6.63;;;6.13;;
3953;SDS011;1991;48.682;9.030;2023-02-13T11:58:30;6.15;;;5.65;;
3953;SDS011;1991;48.682;9.030;2023-02-13T12:01:38;5.85;;;5.45;;
3953;SDS011;1991;48.682;9.030;2023-02-13T12:04:01;6.30;;;5.80;;
3953;SDS011;1991;48.682;9.030;2023-02-13T12:06:30;6.90;;;6.40;;
3953;SDS011;1991;48.682;9.030;2023-02-13T12:09:03;6.65;;;6.15;;
3953;SDS011;1991;48.682;9.030;2023-02-13T12:11:37;5.70;;;5.30;;
3953;SDS011;1991;48.682;9.030;2023-02-13T12:14:17;5.80;;;5.40;;
3953;SDS011;1991;48.682;9.030;2023-02-13T12:16:46;6.03;;;5.63;;
3953;SDS011;1991;48.682;9.030;2023-02-13T12:19:16;6.72;;;6.22;;
3953;SDS011;1991;48.682;9.030;2023-02-13T12:22:08;6.05;;;5.55;;
3953;SDS011;1991;48.682;9.030;2023-02-13T12:33:40;5.97;;;5.57;;
3953;SDS011;1991;48.682;9.030;2023-02-13T12:47:15;5.88;;;5.47;;
3953;SDS011;1991;48.682;9.030;2023-02-13T12:52:39;5.07;;;4.75;;
3953;SDS011;1991;48.682;9.030;2023-02-13T12:55:18;5.57;;;5.18;;
3953;SDS011;1991;48.682;9.030;2023-02-13T13:01:13;5.20;;;4.85;;
3953;SDS011;1991;48.682;9.030;2023-02-13T13:06:38;5.70;;;5.20;;
3953;SDS011;1991;48.682;9.030;2023-02-13T13:22:53;4.90;;;4.57;;
3953;SDS011;1991;48.682;9.030;2023-02-13T13:25:24;5.00;;;4.60;;
3953;SDS011;1991;48.682;9.030;2023-02-13T13:28:03;4.93;;;4.63;;
3953;SDS011;1991;48.682;9.030;2023-02-13T13:30:36;5.28;;;4.97;;
3953;SDS011;1991;48.682;9.030;2023-02-13T13:33:09;5.40;;;5.00;;
3953;SDS011;1991;48.682;9.030;2023-02-13T13:35:37;5.03;;;4.63;;
3953;SDS011;1991;48.682;9.030;2023-02-13T13:38:13;5.05;;;4.68;;
3953;SDS011;1991;48.682;9.030;2023-02-13T13:40:49;5.10;;;4.70;;
3953;SDS011;1991;48.682;9.030;2023-02-13T13:51:48;5.70;;;5.40;;
3953;SDS011;1991;48.682;9.030;2023-02-13T13:59:17;5.70;;;5.30;;
3953;SDS011;1991;48.682;9.030;2023-02-13T14:05:00;5.75;;;5.35;;
3953;SDS011;1991;48.682;9.030;2023-02-13T14:07:44;5.53;;;5.00;;
3953;SDS011;1991;48.682;9.030;2023-02-13T14:16:07;5.75;;;5.30;;
3953;SDS011;1991;48.682;9.030;2023-02-13T14:25:48;6.93;;;6.22;;
3953;SDS011;1991;48.682;9.030;2023-02-13T14:28:20;6.30;;;5.70;;
3953;SDS011;1991;48.682;9.030;2023-02-13T14:30:50;6.60;;;6.00;;
3953;SDS011;1991;48.682;9.030;2023-02-13T14:33:28;7.15;;;6.45;;
3953;SDS011;1991;48.682;9.030;2023-02-13T14:36:03;6.13;;;5.63;;
3953;SDS011;1991;48.682;9.030;2023-02-13T14:38:32;6.45;;;5.95;;
3953;SDS011;1991;48.682;9.030;2023-02-13T14:40:59;6.50;;;6.00;;
3953;SDS011;1991;48.682;9.030;2023-02-13T14:48:20;7.20;;;6.50;;
3953;SDS011;1991;48.682;9.030;2023-02-13T14:50:53;7.90;;;7.10;;
3953;SDS011;1991;48.682;9.030;2023-02-13T14:54:08;7.43;;;6.72;;
3953;SDS011;1991;48.682;9.030;2023-02-13T14:56:18;7.47;;;6.72;;
3953;SDS011;1991;48.682;9.030;2023-02-13T14:59:21;8.02;;;7.22;;
3953;SDS011;1991;48.682;9.030;2023-02-13T15:04:46;9.65;;;7.35;;
3953;SDS011;1991;48.682;9.030;2023-02-13T15:07:25;8.77;;;7.85;;
3953;SDS011;1991;48.682;9.030;2023-02-13T15:10:43;8.85;;;8.05;;
3953;SDS011;1991;48.682;9.030;2023-02-13T15:13:13;9.02;;;8.00;;
3953;SDS011;1991;48.682;9.030;2023-02-13T15:15:49;9.48;;;7.55;;
3953;SDS011;1991;48.682;9.030;2023-02-13T15:21:18;11.13;;;8.15;;
3953;SDS011;1991;48.682;9.030;2023-02-13T15:23:49;10.50;;;8.07;;
3953;SDS011;1991;48.682;9.030;2023-02-13T15:26:20;8.85;;;7.85;;
3953;SDS011;1991;48.682;9.030;2023-02-13T15:29:01;9.38;;;7.65;;
3953;SDS011;1991;48.682;9.030;2023-02-13T15:31:30;9.25;;;8.20;;
3953;SDS011;1991;48.682;9.030;2023-02-13T15:33:57;9.73;;;8.60;;
3953;SDS011;1991;48.682;9.030;2023-02-13T15:36:24;10.57;;;8.63;;
3953;SDS011;1991;48.682;9.030;2023-02-13T15:38:57;9.88;;;8.90;;
3953;SDS011;1991;48.682;9.030;2023-02-13T15:41:25;9.88;;;8.43;;
3953;SDS011;1991;48.682;9.030;2023-02-13T15:43:57;9.65;;;8.65;;
3953;SDS011;1991;48.682;9.030;2023-02-13T15:46:24;10.60;;;9.52;;
3953;SDS011;1991;48.682;9.030;2023-02-13T15:48:59;10.80;;;9.73;;
3953;SDS011;1991;48.682;9.030;2023-02-13T15:51:30;10.95;;;9.43;;
3953;SDS011;1991;48.682;9.030;2023-02-13T15:53:57;11.15;;;9.88;;
3953;SDS011;1991;48.682;9.030;2023-02-13T15:56:27;11.70;;;9.65;;
3953;SDS011;1991;48.682;9.030;2023-02-13T15:58:55;11.30;;;8.98;;
3953;SDS011;1991;48.682;9.030;2023-02-13T16:01:21;11.18;;;9.98;;
3953;SDS011;1991;48.682;9.030;2023-02-13T16:03:48;11.65;;;10.43;;
3953;SDS011;1991;48.682;9.030;2023-02-13T16:06:18;10.93;;;9.60;;
3953;SDS011;1991;48.682;9.030;2023-02-13T16:08:51;13.00;;;10.35;;
3953;SDS011;1991;48.682;9.030;2023-02-13T16:11:19;11.98;;;10.65;;
3953;SDS011;1991;48.682;9.030;2023-02-13T16:16:57;12.98;;;11.38;;
3953;SDS011;1991;48.682;9.030;2023-02-13T16:19:47;11.68;;;9.82;;
3953;SDS011;1991;48.682;9.030;2023-02-13T16:24:53;13.90;;;9.73;;
3953;SDS011;1991;48.682;9.030;2023-02-13T16:27:27;19.38;;;14.02;;
3953;SDS011;1991;48.682;9.030;2023-02-13T16:29:58;18.27;;;13.30;;
3953;SDS011;1991;48.682;9.030;2023-02-13T16:32:27;14.45;;;11.93;;
3953;SDS011;1991;48.682;9.030;2023-02-13T16:34:55;17.55;;;11.88;;
3953;SDS011;1991;48.682;9.030;2023-02-13T16:37:25;17.70;;;13.25;;
3953;SDS011;1991;48.682;9.030;2023-02-13T16:39:53;23.58;;;16.83;;
3953;SDS011;1991;48.682;9.030;2023-02-13T16:42:19;20.05;;;12.43;;
3953;SDS011;1991;48.682;9.030;2023-02-13T16:44:45;16.52;;;11.55;;
3953;SDS011;1991;48.682;9.030;2023-02-13T16:47:22;66.90;;;56.92;;
3953;SDS011;1991;48.682;9.030;2023-02-13T16:49:50;22.08;;;19.27;;
3953;SDS011;1991;48.682;9.030;2023-02-13T16:52:23;12.23;;;9.70;;
3953;SDS011;1991;48.682;9.030;2023-02-13T16:54:57;14.73;;;10.53;;
3953;SDS011;1991;48.682;9.030;2023-02-13T16:59:58;14.17;;;11.07;;
3953;SDS011;1991;48.682;9.030;2023-02-13T17:09:59;15.13;;;10.77;;
3953;SDS011;1991;48.682;9.030;2023-02-13T17:12:28;14.40;;;9.97;;
3953;SDS011;1991;48.682;9.030;2023-02-13T17:14:56;12.87;;;9.97;;
3953;SDS011;1991;48.682;9.030;2023-02-13T17:17:25;16.97;;;11.27;;
3953;SDS011;1991;48.682;9.030;2023-02-13T17:19:52;13.87;;;10.73;;
3953;SDS011;1991;48.682;9.030;2023-02-13T17:22:20;16.23;;;11.40;;
3953;SDS011;1991;48.682;9.030;2023-02-13T17:24:50;18.00;;;11.87;;
3953;SDS011;1991;48.682;9.030;2023-02-13T17:27:16;13.07;;;10.53;;
3953;SDS011;1991;48.682;9.030;2023-02-13T17:29:42;17.43;;;11.60;;
3953;SDS011;1991;48.682;9.030;2023-02-13T17:32:08;14.93;;;11.27;;
3953;SDS011;1991;48.682;9.030;2023-02-13T17:34:41;16.67;;;10.97;;
3953;SDS011;1991;48.682;9.030;2023-02-13T17:37:13;14.93;;;11.27;;
3953;SDS011;1991;48.682;9.030;2023-02-13T17:39:45;16.37;;;11.23;;
3953;SDS011;1991;48.682;9.030;2023-02-13T17:42:16;17.23;;;11.23;;
3953;SDS011;1991;48.682;9.030;2023-02-13T17:44:44;16.30;;;10.97;;
3953;SDS011;1991;48.682;9.030;2023-02-13T17:47:10;17.53;;;10.63;;
3953;SDS011;1991;48.682;9.030;2023-02-13T17:49:36;13.60;;;10.60;;
3953;SDS011;1991;48.682;9.030;2023-02-13T17:52:01;19.53;;;12.93;;
3953;SDS011;1991;48.682;9.030;2023-02-13T17:54:27;18.43;;;14.30;;
3953;SDS011;1991;48.682;9.030;2023-02-13T17:56:53;15.47;;;11.97;;
3953;SDS011;1991;48.682;9.030;2023-02-13T17:59:19;16.40;;;12.67;;
3953;SDS011;1991;48.682;9.030;2023-02-13T18:01:44;21.80;;;15.33;;